Time;durP1;ratioP1;P1;durP2;ratioP2;P2;SDS_P1;SDS_P2;PMS_P1;PMS_P2;Temp;Humidity;BMP_temperature;BMP_pressure;BME280_temperature;BME280_humidity;BME280_pressure;Samples;Min_cycle;Max_cycle;Signal;HPM_P1;HPM_P2
2023/09/28 00:02:52;;;;;;;2.13;0.50;;;18.10;99.90;;;;;;4933351;28;20062;-90
2023/09/28 00:05:21;;;;;;;1.20;0.50;;;18.10;99.90;;;;;;4952660;28;20058;-88
2023/09/28 00:07:48;;;;;;;1.13;0.47;;;18.10;99.90;;;;;;4932157;28;20027;-89
2023/09/28 00:10:15;;;;;;;1.35;0.60;;;18.10;99.90;;;;;;4934123;29;20034;-91
2023/09/28 00:12:46;;;;;;;1.38;0.52;;;18.20;99.90;;;;;;4952209;28;20039;-90
2023/09/28 00:15:12;;;;;;;2.20;0.50;;;18.20;99.90;;;;;;4935495;29;20458;-91
2023/09/28 00:17:39;;;;;;;1.20;0.50;;;18.10;99.90;;;;;;4951039;28;20488;-91
2023/09/28 00:20:09;;;;;;;1.63;0.40;;;18.10;99.90;;;;;;4916878;29;20027;-87
2023/09/28 00:22:35;;;;;;;1.10;0.50;;;18.10;99.90;;;;;;4943102;29;20043;-88
2023/09/28 00:25:01;;;;;;;1.20;0.50;;;18.10;99.90;;;;;;4920024;29;20074;-87
2023/09/28 00:27:27;;;;;;;1.40;0.60;;;18.10;99.90;;;;;;4951873;28;20038;-92
2023/09/28 00:29:53;;;;;;;0.95;0.40;;;18.10;99.90;;;;;;4935571;29;20027;-91
2023/09/28 00:32:20;;;;;;;1.50;0.43;;;18.00;99.90;;;;;;4935042;28;20118;-89
2023/09/28 00:34:46;;;;;;;2.28;0.40;;;18.00;99.90;;;;;;4936016;29;20170;-91
2023/09/28 00:37:12;;;;;;;1.08;0.50;;;18.00;99.90;;;;;;4951229;29;20035;-89
2023/09/28 00:39:38;;;;;;;1.92;0.43;;;18.00;99.90;;;;;;4935142;28;20043;-91
2023/09/28 00:42:05;;;;;;;1.23;0.50;;;17.90;99.90;;;;;;4919142;28;20063;-89
2023/09/28 00:44:31;;;;;;;1.15;0.50;;;17.90;99.90;;;;;;4951870;28;20038;-90
2023/09/28 00:46:57;;;;;;;1.15;0.40;;;17.80;99.90;;;;;;4934611;29;20035;-89
2023/09/28 00:49:24;;;;;;;1.02;0.40;;;17.80;99.90;;;;;;4935314;29;20047;-88
2023/09/28 00:51:51;;;;;;;0.95;0.40;;;17.80;99.90;;;;;;4941687;28;20027;-89
2023/09/28 00:54:20;;;;;;;1.08;0.40;;;17.70;99.90;;;;;;4932188;29;20027;-90
2023/09/28 00:56:46;;;;;;;1.17;0.50;;;17.70;99.90;;;;;;4925132;29;20071;-90
2023/09/28 00:59:12;;;;;;;0.73;0.40;;;17.50;99.90;;;;;;4925295;29;20118;-91
2023/09/28 01:01:39;;;;;;;1.42;0.47;;;17.50;99.90;;;;;;4928015;28;20388;-90
2023/09/28 01:04:10;;;;;;;1.75;0.50;;;17.50;99.90;;;;;;4949089;29;20043;-92
2023/09/28 01:06:37;;;;;;;1.00;0.40;;;17.40;99.90;;;;;;4933675;29;20063;-88
2023/09/28 01:09:08;;;;;;;1.35;0.40;;;17.40;99.90;;;;;;4934677;29;20023;-89
2023/09/28 01:11:35;;;;;;;1.80;0.40;;;17.40;99.90;;;;;;4949556;28;20404;-90
2023/09/28 01:14:02;;;;;;;1.48;0.40;;;17.40;99.90;;;;;;4950136;28;20632;-88
2023/09/28 01:16:27;;;;;;;0.98;0.38;;;17.40;99.90;;;;;;4951341;28;20037;-88
2023/09/28 01:18:54;;;;;;;1.00;0.40;;;17.40;99.90;;;;;;4920569;29;20468;-91
2023/09/28 01:21:20;;;;;;;3.03;0.40;;;17.30;99.90;;;;;;4918611;28;20046;-90
2023/09/28 01:23:46;;;;;;;1.17;0.40;;;17.40;99.90;;;;;;4934639;29;20031;-88
2023/09/28 01:26:11;;;;;;;1.10;0.40;;;17.30;99.90;;;;;;4949752;28;20027;-89
2023/09/28 01:28:38;;;;;;;1.08;0.38;;;17.30;99.90;;;;;;4934986;28;20027;-90
2023/09/28 01:31:04;;;;;;;1.15;0.50;;;17.40;99.90;;;;;;4948755;28;20090;-89
2023/09/28 01:33:30;;;;;;;1.52;0.50;;;17.40;99.90;;;;;;4935077;29;20543;-88
2023/09/28 01:35:56;;;;;;;2.05;0.40;;;17.30;99.90;;;;;;4950434;28;20035;-89
2023/09/28 01:38:40;;;;;;;1.20;0.47;;;17.30;99.90;;;;;;4940835;28;20129;-89
2023/09/28 01:41:07;;;;;;;1.83;0.50;;;17.30;99.90;;;;;;4934041;29;20559;-89
2023/09/28 01:43:32;;;;;;;1.10;0.40;;;17.30;99.90;;;;;;4950585;28;20059;-89
2023/09/28 01:45:58;;;;;;;1.13;0.47;;;17.20;99.90;;;;;;4934571;29;20054;-88
2023/09/28 01:48:24;;;;;;;3.00;0.50;;;17.20;99.90;;;;;;4934341;29;20077;-89
2023/09/28 01:50:50;;;;;;;1.30;0.50;;;17.20;99.90;;;;;;4940444;29;20047;-88
2023/09/28 01:53:16;;;;;;;1.80;0.50;;;17.20;99.90;;;;;;4952890;28;20296;-90
2023/09/28 01:55:41;;;;;;;0.85;0.40;;;17.20;99.90;;;;;;4943465;29;20031;-90
2023/09/28 01:58:07;;;;;;;2.22;0.50;;;17.20;99.90;;;;;;4938656;29;20126;-88
2023/09/28 02:00:38;;;;;;;2.45;0.50;;;17.20;99.90;;;;;;4938277;29;20059;-89
2023/09/28 02:03:05;;;;;;;2.08;0.50;;;17.10;99.90;;;;;;4952447;28;20040;-90
2023/09/28 02:05:33;;;;;;;0.98;0.40;;;17.20;99.90;;;;;;4938629;29;20060;-87
2023/09/28 02:07:59;;;;;;;2.42;0.50;;;17.10;99.90;;;;;;4937693;28;20039;-88
2023/09/28 02:10:26;;;;;;;1.40;0.50;;;17.10;99.90;;;;;;4943804;29;20032;-87
2023/09/28 02:12:52;;;;;;;1.27;0.40;;;17.00;99.90;;;;;;4947859;28;20498;-92
2023/09/28 02:15:17;;;;;;;1.88;0.40;;;17.10;99.90;;;;;;4954223;29;20035;-89
2023/09/28 02:17:44;;;;;;;1.33;0.60;;;17.00;99.90;;;;;;4935841;29;20027;-88
2023/09/28 02:20:14;;;;;;;1.60;0.50;;;17.10;99.90;;;;;;4938779;29;20079;-90
2023/09/28 02:22:44;;;;;;;1.20;0.50;;;17.00;99.90;;;;;;4952931;29;20040;-90
2023/09/28 02:25:15;;;;;;;1.20;0.50;;;17.00;99.90;;;;;;4953973;28;20061;-89
2023/09/28 02:27:42;;;;;;;1.50;0.43;;;16.90;99.90;;;;;;4937527;29;20090;-92
2023/09/28 02:30:11;;;;;;;2.17;0.50;;;16.90;99.90;;;;;;4916814;28;20438;-90
2023/09/28 02:32:39;;;;;;;2.13;0.40;;;16.90;99.90;;;;;;4938716;29;20030;-87
2023/09/28 02:35:07;;;;;;;1.20;0.50;;;16.90;99.90;;;;;;4938199;29;20722;-89
2023/09/28 02:37:34;;;;;;;1.73;0.50;;;16.90;99.90;;;;;;4937684;28;20035;-89
2023/09/28 02:40:04;;;;;;;1.30;0.50;;;16.80;99.90;;;;;;4921829;29;20117;-89
2023/09/28 02:42:30;;;;;;;1.60;0.40;;;16.80;99.90;;;;;;4953758;29;20035;-90
2023/09/28 02:44:57;;;;;;;2.05;0.50;;;16.80;99.90;;;;;;4937900;28;20114;-92
2023/09/28 02:47:23;;;;;;;1.33;0.55;;;16.80;99.90;;;;;;4919901;28;20039;-87
2023/09/28 02:49:56;;;;;;;1.40;0.45;;;16.70;99.90;;;;;;4937153;28;20042;-87
2023/09/28 02:52:22;;;;;;;1.67;0.60;;;16.70;99.90;;;;;;4951393;28;20038;-91
2023/09/28 02:54:48;;;;;;;2.53;0.57;;;16.70;99.90;;;;;;4931195;29;20028;-88
2023/09/28 02:57:14;;;;;;;2.90;0.60;;;16.70;99.90;;;;;;4935745;28;20469;-87
2023/09/28 02:59:41;;;;;;;1.20;0.50;;;16.70;99.90;;;;;;4921280;28;20082;-91
2023/09/28 03:02:08;;;;;;;1.40;0.50;;;16.60;99.90;;;;;;4921332;29;20039;-92
2023/09/28 03:04:34;;;;;;;1.75;0.50;;;16.60;99.90;;;;;;4936939;29;20023;-89
2023/09/28 03:07:00;;;;;;;1.40;0.50;;;16.60;99.90;;;;;;4953517;28;20039;-88
2023/09/28 03:09:27;;;;;;;1.42;0.52;;;16.50;99.90;;;;;;4940747;29;20043;-89
2023/09/28 03:11:54;;;;;;;1.48;0.55;;;16.60;99.90;;;;;;4937562;29;20027;-90
2023/09/28 03:14:21;;;;;;;1.23;0.57;;;16.50;99.90;;;;;;4936318;29;20043;-86
2023/09/28 03:16:47;;;;;;;1.25;0.50;;;16.50;99.90;;;;;;4935997;28;20376;-90
2023/09/28 03:19:13;;;;;;;1.65;0.60;;;16.40;99.90;;;;;;4937222;28;20050;-88
2023/09/28 03:21:41;;;;;;;1.20;0.50;;;16.50;99.90;;;;;;4936952;29;20488;-89
2023/09/28 03:24:08;;;;;;;1.17;0.47;;;16.40;99.90;;;;;;4953103;28;20055;-88
2023/09/28 03:26:34;;;;;;;1.92;0.60;;;16.40;99.90;;;;;;4937163;29;20034;-88
2023/09/28 03:29:00;;;;;;;1.63;0.50;;;16.40;99.90;;;;;;4920213;28;20031;-90
2023/09/28 03:31:27;;;;;;;2.70;0.60;;;16.40;99.90;;;;;;4953155;28;20059;-87
2023/09/28 03:33:56;;;;;;;2.17;0.70;;;16.40;99.90;;;;;;4948427;28;20484;-89
2023/09/28 03:36:22;;;;;;;0.98;0.50;;;16.30;99.90;;;;;;4936029;29;20046;-91
2023/09/28 03:38:48;;;;;;;1.70;0.60;;;16.30;99.90;;;;;;4935963;29;20027;-89
2023/09/28 03:41:14;;;;;;;1.63;0.60;;;16.30;99.90;;;;;;4936796;28;20452;-89
2023/09/28 03:43:42;;;;;;;1.50;0.60;;;16.30;99.90;;;;;;4954698;28;20058;-90
2023/09/28 03:46:08;;;;;;;1.90;0.55;;;16.20;99.90;;;;;;4935977;29;20031;-88
2023/09/28 03:48:35;;;;;;;2.58;0.63;;;16.20;99.90;;;;;;4934791;29;20118;-89
2023/09/28 03:51:01;;;;;;;1.55;0.70;;;16.20;99.90;;;;;;4920592;29;20102;-88
2023/09/28 03:53:27;;;;;;;1.40;0.50;;;16.20;99.90;;;;;;4935605;29;20428;-94
2023/09/28 03:55:53;;;;;;;2.83;0.80;;;16.20;99.90;;;;;;4936534;29;20082;-92
2023/09/28 03:58:18;;;;;;;1.67;0.68;;;16.20;99.90;;;;;;4952829;28;20027;-89
2023/09/28 04:00:44;;;;;;;2.08;0.60;;;16.20;99.90;;;;;;4919789;29;20037;-88
2023/09/28 04:03:11;;;;;;;1.65;0.73;;;16.20;99.90;;;;;;4950004;28;20067;-93
2023/09/28 04:05:38;;;;;;;1.40;0.60;;;16.20;99.90;;;;;;4936306;29;20474;-93
2023/09/28 04:08:05;;;;;;;1.27;0.50;;;16.20;99.90;;;;;;4935907;29;20127;-89
2023/09/28 04:10:33;;;;;;;1.40;0.60;;;16.10;99.90;;;;;;4952303;28;20027;-88
2023/09/28 04:13:01;;;;;;;2.40;0.55;;;16.10;99.90;;;;;;4935414;28;20041;-90
2023/09/28 04:15:27;;;;;;;1.60;0.60;;;16.10;99.90;;;;;;4951271;28;20039;-88
2023/09/28 04:17:52;;;;;;;1.50;0.70;;;16.10;99.90;;;;;;4941424;29;20640;-87
2023/09/28 04:20:18;;;;;;;1.95;0.60;;;16.10;99.90;;;;;;4935944;28;20484;-89
2023/09/28 04:22:45;;;;;;;1.35;0.65;;;16.00;99.90;;;;;;4952819;28;20039;-92
2023/09/28 04:25:11;;;;;;;2.17;0.75;;;16.00;99.90;;;;;;4950297;28;20054;-88
2023/09/28 04:27:37;;;;;;;1.80;0.77;;;16.00;99.90;;;;;;4948842;28;20047;-87
2023/09/28 04:30:03;;;;;;;1.83;0.68;;;16.00;99.90;;;;;;4949560;28;20019;-89
2023/09/28 04:32:31;;;;;;;2.28;0.63;;;16.00;99.90;;;;;;4927100;29;20027;-91
2023/09/28 04:34:57;;;;;;;1.70;0.60;;;16.00;99.90;;;;;;4914067;29;20506;-87
2023/09/28 04:37:25;;;;;;;2.85;0.70;;;16.00;99.90;;;;;;4927963;29;20027;-87
2023/09/28 04:39:53;;;;;;;2.03;0.80;;;16.00;99.90;;;;;;4949389;28;20024;-89
2023/09/28 04:42:22;;;;;;;1.40;0.60;;;16.00;99.90;;;;;;4952037;28;20054;-88
2023/09/28 04:44:49;;;;;;;3.57;0.87;;;16.00;99.90;;;;;;4932191;29;20027;-88
2023/09/28 04:47:15;;;;;;;1.70;0.65;;;15.90;99.90;;;;;;4950267;28;20027;-92
2023/09/28 04:49:41;;;;;;;1.88;0.77;;;15.90;99.90;;;;;;4935681;29;20400;-89
2023/09/28 04:52:07;;;;;;;1.40;0.60;;;15.90;99.90;;;;;;4935337;29;20113;-86
2023/09/28 04:54:33;;;;;;;1.45;0.60;;;15.90;99.90;;;;;;4935525;29;20035;-93
2023/09/28 04:56:59;;;;;;;1.55;0.80;;;15.80;99.90;;;;;;4916278;29;20122;-89
2023/09/28 04:59:38;;;;;;;2.10;0.90;;;15.90;99.90;;;;;;4935629;29;20030;-88
2023/09/28 05:02:04;;;;;;;1.95;0.85;;;15.80;99.90;;;;;;4951100;29;20162;-90
2023/09/28 05:04:32;;;;;;;3.05;0.90;;;15.80;99.90;;;;;;4923638;29;20102;-88
2023/09/28 05:06:59;;;;;;;2.00;0.80;;;15.80;99.90;;;;;;4935022;29;20483;-87
2023/09/28 05:09:26;;;;;;;2.35;0.80;;;15.80;99.90;;;;;;4933083;29;20019;-88
2023/09/28 05:11:53;;;;;;;3.45;0.88;;;15.80;99.90;;;;;;4935585;28;20526;-91
2023/09/28 05:14:24;;;;;;;2.95;0.70;;;15.70;99.90;;;;;;4949884;28;20055;-87
2023/09/28 05:16:54;;;;;;;2.58;0.90;;;15.80;99.90;;;;;;4907386;28;20065;-87
2023/09/28 05:19:21;;;;;;;2.53;1.20;;;15.80;99.90;;;;;;4937200;29;20036;-88
2023/09/28 05:21:47;;;;;;;3.03;1.00;;;15.70;99.90;;;;;;4935008;28;20054;-88
2023/09/28 05:24:13;;;;;;;2.20;1.05;;;15.80;99.90;;;;;;4918633;28;20027;-87
2023/09/28 05:26:39;;;;;;;1.90;1.00;;;15.80;99.90;;;;;;4931941;29;20028;-88
2023/09/28 05:29:05;;;;;;;2.92;0.95;;;15.70;99.90;;;;;;4933675;29;20041;-89
2023/09/28 05:31:31;;;;;;;2.00;1.17;;;15.70;99.90;;;;;;4951252;28;20035;-90
2023/09/28 05:33:56;;;;;;;3.80;0.90;;;15.70;99.90;;;;;;4916714;29;20090;-89
2023/09/28 05:36:22;;;;;;;3.08;1.00;;;15.60;99.90;;;;;;4950393;29;20023;-88
2023/09/28 05:38:48;;;;;;;2.30;1.02;;;15.70;99.90;;;;;;4935326;28;20051;-87
2023/09/28 05:41:13;;;;;;;3.80;1.40;;;15.70;99.90;;;;;;4914986;28;20476;-88
2023/09/28 05:43:39;;;;;;;2.92;0.90;;;15.70;99.90;;;;;;4912716;28;20483;-89
2023/09/28 05:46:05;;;;;;;2.42;0.95;;;15.80;99.90;;;;;;4933958;28;20035;-90
2023/09/28 05:48:30;;;;;;;3.65;1.50;;;15.80;99.90;;;;;;4934607;29;20090;-89
2023/09/28 05:50:56;;;;;;;2.40;1.60;;;15.80;99.90;;;;;;4952220;29;20054;-86
2023/09/28 05:53:22;;;;;;;2.92;1.50;;;15.80;99.90;;;;;;4934702;29;20447;-87
2023/09/28 05:55:51;;;;;;;3.22;1.33;;;15.80;99.90;;;;;;4947861;29;20034;-86
2023/09/28 05:58:16;;;;;;;4.15;1.20;;;15.90;99.90;;;;;;4933856;29;20047;-87
2023/09/28 06:00:42;;;;;;;2.60;1.60;;;15.90;99.90;;;;;;4935139;29;20034;-86
2023/09/28 06:03:08;;;;;;;2.50;0.88;;;15.80;99.90;;;;;;4933715;29;20125;-86
2023/09/28 06:05:33;;;;;;;3.83;1.00;;;15.90;99.90;;;;;;4934558;29;20023;-87
2023/09/28 06:08:00;;;;;;;2.47;0.90;;;15.90;99.90;;;;;;4949089;29;20027;-85
2023/09/28 06:10:26;;;;;;;4.85;1.50;;;15.90;99.90;;;;;;4938570;29;20027;-85
2023/09/28 06:12:52;;;;;;;2.97;1.10;;;16.10;99.90;;;;;;4933524;29;20023;-86
2023/09/28 06:15:18;;;;;;;7.35;1.80;;;16.20;99.90;;;;;;4933789;29;20047;-86
2023/09/28 06:17:44;;;;;;;6.05;1.80;;;16.30;99.90;;;;;;4933724;29;20027;-85
2023/09/28 06:20:10;;;;;;;4.55;1.60;;;16.30;99.90;;;;;;4933528;28;20468;-87
2023/09/28 06:22:36;;;;;;;4.25;1.63;;;16.40;99.90;;;;;;4950118;28;20079;-87
2023/09/28 06:25:02;;;;;;;4.70;1.02;;;16.50;99.90;;;;;;4949856;28;20063;-86
2023/09/28 06:27:32;;;;;;;3.42;1.27;;;16.40;99.90;;;;;;4934458;29;20067;-87
2023/09/28 06:29:57;;;;;;;6.68;2.08;;;16.50;99.90;;;;;;4922589;29;20091;-86
2023/09/28 06:32:24;;;;;;;5.78;1.23;;;16.60;99.90;;;;;;4937421;29;20038;-87
2023/09/28 06:34:51;;;;;;;4.32;1.40;;;16.60;99.90;;;;;;4950552;28;20028;-86
2023/09/28 06:37:17;;;;;;;4.35;1.50;;;16.50;99.90;;;;;;4934251;29;20046;-86
2023/09/28 06:39:43;;;;;;;4.75;1.30;;;16.50;99.90;;;;;;4948174;28;20031;-86
2023/09/28 06:42:08;;;;;;;2.20;0.80;;;16.50;99.90;;;;;;4935094;29;20036;-86
2023/09/28 06:44:35;;;;;;;3.08;0.90;;;16.50;99.90;;;;;;4954116;28;20030;-88
2023/09/28 06:47:01;;;;;;;2.58;0.80;;;16.50;99.90;;;;;;4935935;28;20031;-86
2023/09/28 06:49:27;;;;;;;2.55;0.60;;;16.50;99.90;;;;;;4936559;29;20024;-86
2023/09/28 06:51:53;;;;;;;2.70;0.65;;;16.50;99.90;;;;;;4934011;28;20042;-86
2023/09/28 06:54:20;;;;;;;2.75;1.00;;;16.50;99.90;;;;;;4943290;28;20043;-86
2023/09/28 06:56:49;;;;;;;4.95;1.13;;;16.60;99.90;;;;;;4918845;28;20452;-86
2023/09/28 06:59:15;;;;;;;3.10;1.00;;;16.70;99.90;;;;;;4933065;29;20031;-88
2023/09/28 07:01:41;;;;;;;2.42;0.93;;;16.70;99.90;;;;;;4936468;29;20039;-86
2023/09/28 07:04:06;;;;;;;5.07;1.15;;;16.80;99.90;;;;;;4936596;29;20035;-86
2023/09/28 07:06:33;;;;;;;3.85;1.42;;;16.80;99.90;;;;;;4935444;28;20027;-86
2023/09/28 07:08:59;;;;;;;4.22;1.33;;;16.90;99.90;;;;;;4935100;28;20024;-87
2023/09/28 07:11:26;;;;;;;6.32;2.28;;;16.90;99.90;;;;;;4936530;29;20551;-88
2023/09/28 07:13:54;;;;;;;7.15;1.98;;;16.90;99.90;;;;;;4954220;28;20062;-89
2023/09/28 07:16:20;;;;;;;6.43;1.50;;;17.00;99.90;;;;;;4937141;28;20510;-88
2023/09/28 07:18:46;;;;;;;4.88;1.50;;;17.00;99.90;;;;;;4955101;28;20163;-87
2023/09/28 07:21:11;;;;;;;6.75;1.92;;;17.20;99.90;;;;;;4931964;29;20047;-87
2023/09/28 07:23:39;;;;;;;6.10;2.05;;;17.20;99.90;;;;;;4953929;28;20043;-87
2023/09/28 07:26:17;;;;;;;7.95;1.92;;;17.30;99.90;;;;;;4952937;28;20046;-86
2023/09/28 07:28:44;;;;;;;7.57;1.75;;;17.30;99.90;;;;;;4937525;29;20039;-87
2023/09/28 07:31:11;;;;;;;13.90;2.53;;;17.30;99.90;;;;;;4937453;29;20031;-88
2023/09/28 07:33:39;;;;;;;8.25;2.30;;;17.30;99.90;;;;;;4953373;28;20114;-88
2023/09/28 07:36:05;;;;;;;8.73;1.38;;;17.40;99.90;;;;;;4916722;28;20034;-87
2023/09/28 07:38:32;;;;;;;9.90;1.45;;;17.50;99.90;;;;;;4936046;29;20059;-87
2023/09/28 07:40:59;;;;;;;6.15;1.33;;;17.60;99.90;;;;;;4936154;29;20027;-89
2023/09/28 07:43:25;;;;;;;8.35;1.30;;;17.60;99.90;;;;;;4937274;29;20031;-88
2023/09/28 07:45:51;;;;;;;8.18;1.00;;;17.60;99.90;;;;;;4952643;28;20031;-93
2023/09/28 07:48:17;;;;;;;12.88;1.35;;;17.70;99.90;;;;;;4939432;29;20063;-91
2023/09/28 07:50:43;;;;;;;13.07;2.05;;;17.70;99.90;;;;;;4933754;29;20055;-89
2023/09/28 07:53:08;;;;;;;11.25;1.60;;;17.70;99.90;;;;;;4952292;28;20394;-85
2023/09/28 07:55:34;;;;;;;11.95;1.05;;;17.80;99.90;;;;;;4915863;28;20479;-85
2023/09/28 07:58:00;;;;;;;12.57;1.20;;;18.00;99.90;;;;;;4934618;29;20070;-86
2023/09/28 08:00:27;;;;;;;11.35;1.58;;;18.00;99.90;;;;;;4949193;28;20031;-84
2023/09/28 08:02:53;;;;;;;16.42;1.10;;;18.00;99.90;;;;;;4934573;28;20043;-85
2023/09/28 08:05:19;;;;;;;14.43;1.98;;;18.00;99.90;;;;;;4935639;29;20031;-84
2023/09/28 08:07:45;;;;;;;16.92;1.77;;;18.00;99.90;;;;;;4935177;28;20027;-87
2023/09/28 08:10:10;;;;;;;17.90;1.80;;;18.10;99.90;;;;;;4941474;29;20027;-85
2023/09/28 08:12:37;;;;;;;13.77;1.80;;;18.10;99.90;;;;;;4952881;28;20738;-87
2023/09/28 08:15:04;;;;;;;18.17;1.55;;;18.20;99.90;;;;;;4936045;28;20059;-84
2023/09/28 08:17:30;;;;;;;15.52;1.77;;;18.20;99.90;;;;;;4933449;29;20035;-85
2023/09/28 08:19:56;;;;;;;15.77;2.00;;;18.30;99.90;;;;;;4934970;29;20042;-86
2023/09/28 08:22:22;;;;;;;14.80;1.55;;;18.40;99.90;;;;;;4940733;29;20102;-90
2023/09/28 08:24:49;;;;;;;14.93;1.60;;;18.30;99.90;;;;;;4947904;28;20023;-86
2023/09/28 08:27:14;;;;;;;14.18;1.48;;;18.20;99.90;;;;;;4924037;29;20131;-87
2023/09/28 08:29:40;;;;;;;14.35;1.17;;;18.30;99.90;;;;;;4934557;28;20122;-85
2023/09/28 08:32:06;;;;;;;15.02;1.52;;;18.40;99.90;;;;;;4935793;28;20046;-84
2023/09/28 08:34:35;;;;;;;15.10;1.27;;;18.40;99.90;;;;;;4948768;28;20106;-86
2023/09/28 08:37:03;;;;;;;18.92;1.88;;;18.50;99.90;;;;;;4950316;28;20118;-87
2023/09/28 08:39:31;;;;;;;14.10;1.85;;;18.40;99.90;;;;;;4949450;28;20023;-84
2023/09/28 08:42:00;;;;;;;16.75;1.70;;;18.40;99.90;;;;;;4949929;28;20062;-84
2023/09/28 08:44:28;;;;;;;;;;;18.60;99.90;;;;;;4934823;28;20621;-84
2023/09/28 08:46:58;;;;;;;19.08;1.73;;;18.60;99.90;;;;;;4918169;29;20365;-87
2023/09/28 08:49:27;;;;;;;18.35;1.70;;;18.60;99.90;;;;;;4932581;29;20034;-86
2023/09/28 08:51:56;;;;;;;18.17;2.20;;;18.60;99.90;;;;;;4933789;29;20042;-87
2023/09/28 08:54:26;;;;;;;14.10;1.08;;;18.60;99.90;;;;;;4932537;29;20502;-85
2023/09/28 08:56:53;;;;;;;17.20;1.40;;;18.80;99.90;;;;;;4932991;29;20027;-87
2023/09/28 08:59:19;;;;;;;15.25;1.15;;;18.80;99.90;;;;;;4946651;28;20172;-88
2023/09/28 09:01:47;;;;;;;17.35;1.88;;;18.80;99.90;;;;;;4934265;28;20440;-85
2023/09/28 09:04:12;;;;;;;16.92;2.15;;;18.80;99.90;;;;;;4934349;29;20027;-90
2023/09/28 09:06:40;;;;;;;15.13;1.92;;;18.60;99.90;;;;;;4934328;28;20379;-86
2023/09/28 09:09:06;;;;;;;14.90;1.50;;;18.50;99.90;;;;;;4929616;29;20023;-86
2023/09/28 09:11:36;;;;;;;13.38;1.60;;;18.60;99.90;;;;;;4934181;28;20491;-86
2023/09/28 09:14:02;;;;;;;15.32;1.10;;;18.50;99.90;;;;;;4949999;28;20110;-85
2023/09/28 09:16:29;;;;;;;12.88;1.30;;;18.50;99.90;;;;;;4949544;28;20103;-85
2023/09/28 09:18:55;;;;;;;11.38;1.17;;;18.60;99.90;;;;;;4951098;28;20030;-83
2023/09/28 09:21:22;;;;;;;11.60;1.55;;;18.90;99.90;;;;;;4931762;29;20381;-85
2023/09/28 09:24:04;;;;;;;12.13;1.90;;;19.00;99.90;;;;;;4931991;29;20067;-84
2023/09/28 09:26:47;;;;;;;15.88;1.88;;;18.70;99.90;;;;;;4916628;29;20061;-85
2023/09/28 09:29:15;;;;;;;16.27;1.50;;;18.60;99.90;;;;;;4947868;28;20098;-83
2023/09/28 09:31:43;;;;;;;16.50;1.90;;;18.70;99.90;;;;;;4933266;28;20035;-83
2023/09/28 09:34:14;;;;;;;16.50;1.60;;;18.60;99.90;;;;;;4947545;28;20059;-87
2023/09/28 09:36:41;;;;;;;15.45;1.52;;;18.60;99.90;;;;;;4933676;28;20571;-85
2023/09/28 09:39:08;;;;;;;18.08;2.13;;;18.70;99.90;;;;;;4932479;29;20035;-85
2023/09/28 09:41:46;;;;;;;14.68;1.92;;;18.80;99.90;;;;;;4933052;28;20024;-87
2023/09/28 09:44:17;;;;;;;14.40;1.85;;;18.90;99.90;;;;;;4949780;28;20467;-87
2023/09/28 09:46:43;;;;;;;14.00;1.52;;;19.00;99.90;;;;;;4932953;28;20034;-87
2023/09/28 09:49:10;;;;;;;15.77;1.20;;;18.90;99.90;;;;;;4933515;29;20031;-83
2023/09/28 09:51:39;;;;;;;13.30;1.80;;;19.00;99.90;;;;;;4921197;29;20057;-88
2023/09/28 09:54:08;;;;;;;13.75;1.45;;;19.20;99.90;;;;;;4950619;28;20046;-84
2023/09/28 09:56:35;;;;;;;11.73;1.30;;;19.30;99.90;;;;;;4929913;29;20027;-85
2023/09/28 09:59:05;;;;;;;15.18;1.50;;;19.10;99.90;;;;;;4932564;29;20023;-85
2023/09/28 10:01:34;;;;;;;11.95;1.30;;;19.10;99.90;;;;;;4948569;28;20031;-85
2023/09/28 10:04:04;;;;;;;16.27;1.30;;;19.10;99.90;;;;;;4930839;29;20090;-83
2023/09/28 10:06:31;;;;;;;12.85;1.42;;;19.10;99.90;;;;;;4932245;28;20539;-83
2023/09/28 10:08:57;;;;;;;7.88;0.93;;;18.90;99.90;;;;;;4915402;29;20024;-86
2023/09/28 10:11:24;;;;;;;16.63;1.73;;;19.10;99.90;;;;;;4932606;29;20131;-84
2023/09/28 10:13:50;;;;;;;17.60;1.77;;;18.90;99.90;;;;;;4950066;28;20070;-84
2023/09/28 10:16:18;;;;;;;11.98;1.48;;;19.00;99.90;;;;;;4951289;28;20039;-86
2023/09/28 10:18:47;;;;;;;17.10;1.85;;;19.30;99.90;;;;;;4937307;29;20041;-85
2023/09/28 10:21:16;;;;;;;13.80;1.20;;;19.10;99.90;;;;;;4936235;29;20031;-84
2023/09/28 10:23:42;;;;;;;12.50;1.38;;;19.30;99.90;;;;;;4917866;29;20075;-85
2023/09/28 10:26:12;;;;;;;8.70;1.13;;;19.50;99.90;;;;;;4936969;29;20035;-84
2023/09/28 10:29:01;;;;;;;10.38;1.05;;;20.30;99.90;;;;;;4951858;28;20429;-86
2023/09/28 10:31:32;;;;;;;11.60;1.30;;;19.80;99.90;;;;;;4918102;29;20068;-86
2023/09/28 10:34:03;;;;;;;7.22;0.98;;;20.20;99.90;;;;;;4936616;29;20385;-86
2023/09/28 10:36:30;;;;;;;9.82;1.05;;;20.60;99.90;;;;;;4950814;28;20035;-85
2023/09/28 10:39:14;;;;;;;11.85;1.58;;;20.60;99.90;;;;;;4919678;28;20031;-85
2023/09/28 10:41:51;;;;;;;13.63;1.83;;;20.30;99.90;;;;;;4936777;29;20027;-91
2023/09/28 10:44:19;;;;;;;17.30;1.35;;;20.10;99.90;;;;;;4936104;29;20043;-90
2023/09/28 10:46:50;;;;;;;9.23;1.30;;;19.80;99.90;;;;;;4952215;28;20030;-85
2023/09/28 10:49:27;;;;;;;12.65;1.20;;;19.90;99.90;;;;;;4936322;29;20031;-85
2023/09/28 10:51:55;;;;;;;9.98;1.05;;;20.30;99.90;;;;;;4936249;29;20138;-87
2023/09/28 10:54:23;;;;;;;9.45;1.38;;;20.60;99.90;;;;;;4913588;29;20028;-87
2023/09/28 10:56:50;;;;;;;7.78;0.90;;;20.20;99.90;;;;;;4936910;29;20031;-88
2023/09/28 10:59:18;;;;;;;7.47;1.08;;;20.30;99.90;;;;;;4937046;29;20031;-86
2023/09/28 11:01:45;;;;;;;9.23;1.25;;;20.20;99.90;;;;;;4910213;29;20433;-86
2023/09/28 11:04:14;;;;;;;12.63;1.02;;;19.70;99.90;;;;;;4921401;28;20164;-87
2023/09/28 11:06:44;;;;;;;13.52;1.88;;;20.00;99.90;;;;;;4952391;28;20037;-87
2023/09/28 11:09:12;;;;;;;5.22;0.70;;;19.80;99.90;;;;;;4949362;29;20141;-88
2023/09/28 11:11:38;;;;;;;8.90;0.80;;;19.90;99.90;;;;;;4937062;28;20039;-88
2023/09/28 11:14:06;;;;;;;7.20;1.10;;;20.30;99.90;;;;;;4935816;29;20043;-86
2023/09/28 11:16:34;;;;;;;7.27;0.70;;;20.30;99.90;;;;;;4936247;28;20040;-85
2023/09/28 11:19:00;;;;;;;3.92;0.40;;;20.30;99.90;;;;;;4933545;29;20105;-87
2023/09/28 11:21:30;;;;;;;12.00;1.00;;;20.30;99.90;;;;;;4936099;29;20046;-91
2023/09/28 11:23:56;;;;;;;10.38;1.90;;;20.20;99.90;;;;;;4934928;28;20432;-87
2023/09/28 11:26:22;;;;;;;10.77;1.23;;;20.00;99.90;;;;;;4935282;28;20031;-86
2023/09/28 11:28:54;;;;;;;7.05;0.90;;;19.80;99.90;;;;;;4933408;28;20035;-87
2023/09/28 11:31:21;;;;;;;10.27;1.15;;;20.30;99.90;;;;;;4919124;29;20024;-86
2023/09/28 11:33:48;;;;;;;4.32;0.50;;;20.50;99.90;;;;;;4920894;29;20038;-86
2023/09/28 11:36:20;;;;;;;8.52;1.38;;;20.60;99.90;;;;;;4935579;29;20051;-86
2023/09/28 11:38:47;;;;;;;9.73;1.45;;;19.90;99.90;;;;;;4947265;28;20059;-90
2023/09/28 11:41:15;;;;;;;10.95;1.30;;;20.10;99.90;;;;;;4936157;29;20031;-85
2023/09/28 11:43:51;;;;;;;9.27;1.38;;;20.20;99.90;;;;;;4935907;28;20144;-87
2023/09/28 11:46:22;;;;;;;7.70;1.10;;;20.20;99.90;;;;;;4950414;29;20477;-87
2023/09/28 11:49:04;;;;;;;9.23;1.02;;;20.50;99.90;;;;;;4936233;29;20023;-86
2023/09/28 11:51:34;;;;;;;9.90;1.20;;;20.70;99.90;;;;;;4951671;29;20035;-86
2023/09/28 11:54:05;;;;;;;7.22;0.75;;;20.70;99.90;;;;;;4920835;29;20046;-85
2023/09/28 11:56:31;;;;;;;8.70;0.95;;;20.90;99.90;;;;;;4934144;28;20031;-86
2023/09/28 11:58:57;;;;;;;7.78;0.90;;;20.70;99.90;;;;;;4935149;28;20098;-85
2023/09/28 12:01:23;;;;;;;7.75;0.60;;;20.50;99.90;;;;;;4935616;29;20035;-86
2023/09/28 12:03:49;;;;;;;4.30;0.70;;;20.70;99.90;;;;;;4916230;29;20371;-88
2023/09/28 12:06:18;;;;;;;6.63;1.05;;;21.00;99.90;;;;;;4935457;29;20023;-87
2023/09/28 12:08:45;;;;;;;5.05;0.88;;;21.40;99.90;;;;;;4949859;28;20031;-84
2023/09/28 12:11:11;;;;;;;5.60;0.65;;;21.50;99.90;;;;;;4927908;28;20395;-86
2023/09/28 12:13:37;;;;;;;3.58;0.50;;;21.60;99.90;;;;;;4935327;29;20061;-86
2023/09/28 12:16:06;;;;;;;3.28;0.50;;;21.40;99.90;;;;;;4900491;29;20040;-88
2023/09/28 12:18:32;;;;;;;8.80;1.52;;;21.40;99.90;;;;;;4911181;29;20144;-88
2023/09/28 12:20:59;;;;;;;4.75;0.60;;;20.90;99.90;;;;;;4930356;29;20034;-87
2023/09/28 12:23:25;;;;;;;7.28;0.75;;;21.00;99.90;;;;;;4932264;29;20122;-86
2023/09/28 12:25:51;;;;;;;11.50;1.15;;;21.10;99.90;;;;;;4895699;29;20128;-89
2023/09/28 12:28:17;;;;;;;14.13;1.38;;;21.00;99.90;;;;;;4897741;29;20036;-87
2023/09/28 12:30:43;;;;;;;10.27;0.90;;;20.70;99.90;;;;;;4897254;29;20032;-89
2023/09/28 12:33:09;;;;;;;9.10;0.75;;;20.40;99.90;;;;;;4914978;29;20035;-87
2023/09/28 12:35:36;;;;;;;8.18;0.82;;;20.60;99.90;;;;;;4899261;29;20032;-86
2023/09/28 12:38:05;;;;;;;5.28;0.85;;;20.70;99.90;;;;;;4912397;29;20111;-88
2023/09/28 12:40:34;;;;;;;8.23;1.10;;;20.70;99.90;;;;;;4922132;29;20048;-89
2023/09/28 12:43:05;;;;;;;11.40;1.10;;;20.40;99.90;;;;;;4914169;29;20408;-88
2023/09/28 12:45:35;;;;;;;8.98;1.05;;;20.50;99.90;;;;;;4904902;29;20042;-87
2023/09/28 12:48:02;;;;;;;7.95;1.23;;;20.30;99.90;;;;;;4908562;29;20032;-86